sensor_id;sensor_type;location;lat;lon;timestamp;P1;P4;P2;P0;N10;N4;N25;N1;N05;TS
78211;SPS30;67490;52.086;5.122;2023-05-29T00:02:34;10.28;9.13;7.06;4.21;34.02;33.89;33.37;30.56;22.47;0.81
78211;SPS30;67490;52.086;5.122;2023-05-29T00:05:18;10.39;9.23;7.11;4.21;34.02;33.89;33.35;30.49;22.33;0.82
78211;SPS30;67490;52.086;5.122;2023-05-29T00:08:03;10.84;9.60;7.33;4.25;34.36;34.22;33.64;30.59;22.13;0.84
78211;SPS30;67490;52.086;5.122;2023-05-29T00:10:47;9.99;8.88;6.87;4.12;33.24;33.12;32.60;29.89;22.01;0.81
78211;SPS30;67490;52.086;5.122;2023-05-29T00:13:32;10.21;9.10;7.07;4.27;34.50;34.38;33.86;31.11;23.03;0.80
78211;SPS30;67490;52.086;5.122;2023-05-29T00:16:16;10.18;9.03;6.95;4.11;33.21;33.08;32.55;29.75;21.76;0.81
78211;SPS30;67490;52.086;5.122;2023-05-29T00:19:03;9.57;8.51;6.58;3.94;31.78;31.66;31.17;28.57;21.02;0.82
78211;SPS30;67490;52.086;5.122;2023-05-29T00:21:47;10.31;9.12;6.95;3.99;32.29;32.16;31.61;28.68;20.66;0.85
78211;SPS30;67490;52.086;5.122;2023-05-29T00:24:32;10.20;9.03;6.89;3.98;32.19;32.06;31.52;28.64;20.69;0.83
78211;SPS30;67490;52.086;5.122;2023-05-29T00:27:16;8.87;7.88;6.06;3.59;28.97;28.86;28.40;25.95;18.99;0.82
78211;SPS30;67490;52.086;5.122;2023-05-29T00:30:00;9.33;8.33;6.51;3.99;32.20;32.08;31.62;29.15;21.73;0.80
78211;SPS30;67490;52.086;5.122;2023-05-29T00:32:45;9.63;8.55;6.58;3.89;31.42;31.30;30.80;28.14;20.57;0.80
78211;SPS30;67490;52.086;5.122;2023-05-29T00:35:31;9.31;8.24;6.29;3.63;29.36;29.24;28.74;26.11;18.85;0.80
78211;SPS30;67490;52.086;5.122;2023-05-29T00:38:15;9.41;8.32;6.35;3.67;29.67;29.55;29.05;26.39;19.06;0.81
78211;SPS30;67490;52.086;5.122;2023-05-29T00:41:00;8.72;7.75;5.98;3.56;28.72;28.61;28.16;25.77;18.91;0.81
78211;SPS30;67490;52.086;5.122;2023-05-29T00:43:44;8.84;7.85;6.05;3.58;28.93;28.82;28.36;25.93;18.98;0.83
78211;SPS30;67490;52.086;5.122;2023-05-29T00:46:29;9.33;8.27;6.34;3.71;29.99;29.87;29.38;26.78;19.48;0.84
78211;SPS30;67490;52.086;5.122;2023-05-29T00:49:15;9.11;8.07;6.18;3.60;29.10;28.99;28.51;25.96;18.84;0.84
78211;SPS30;67490;52.086;5.122;2023-05-29T00:52:01;10.03;8.88;6.78;3.93;31.74;31.61;31.08;28.25;20.42;0.85
78211;SPS30;67490;52.086;5.122;2023-05-29T00:54:50;8.81;7.86;6.13;3.76;30.30;30.20;29.76;27.42;20.42;0.79
78211;SPS30;67490;52.086;5.122;2023-05-29T00:57:36;8.49;7.54;5.82;3.47;28.02;27.91;27.48;25.15;18.47;0.80
78211;SPS30;67490;52.086;5.122;2023-05-29T01:00:24;9.50;8.37;6.31;3.53;28.53;28.41;27.89;25.12;17.79;0.84
78211;SPS30;67490;52.086;5.122;2023-05-29T01:03:09;10.14;8.92;6.68;3.68;29.75;29.62;29.05;26.05;18.27;0.84
78211;SPS30;67490;52.086;5.122;2023-05-29T01:05:58;9.26;8.18;6.23;3.57;28.87;28.75;28.25;25.61;18.41;0.82
78211;SPS30;67490;52.086;5.122;2023-05-29T01:08:45;8.74;7.75;5.95;3.50;28.29;28.18;27.72;25.30;18.45;0.81
78211;SPS30;67490;52.086;5.122;2023-05-29T01:11:31;8.86;7.89;6.12;3.70;29.84;29.73;29.28;26.89;19.88;0.78
78211;SPS30;67490;52.086;5.122;2023-05-29T01:14:29;8.49;7.55;5.85;3.51;28.30;28.20;27.76;25.45;18.76;0.80
78211;SPS30;67490;52.086;5.122;2023-05-29T01:17:23;8.36;7.44;5.75;3.44;27.78;27.67;27.25;24.97;18.37;0.81
78211;SPS30;67490;52.086;5.122;2023-05-29T01:20:20;8.92;7.90;6.06;3.54;28.59;28.48;28.01;25.52;18.54;0.80
78211;SPS30;67490;52.086;5.122;2023-05-29T01:23:21;8.98;7.94;6.06;3.50;28.30;28.19;27.71;25.17;18.17;0.80
78211;SPS30;67490;52.086;5.122;2023-05-29T01:26:43;8.87;7.87;6.05;3.56;28.76;28.65;28.19;25.73;18.78;0.80
78211;SPS30;67490;52.086;5.122;2023-05-29T01:29:34;9.24;8.16;6.21;3.56;28.76;28.64;28.15;25.51;18.33;0.81
78211;SPS30;67490;52.086;5.122;2023-05-29T01:32:18;9.26;8.14;6.08;3.32;26.87;26.74;26.23;23.47;16.37;0.85
78211;SPS30;67490;52.086;5.122;2023-05-29T01:35:05;10.45;9.17;6.85;3.72;30.15;30.01;29.42;26.30;18.31;0.87
78211;SPS30;67490;52.086;5.122;2023-05-29T01:37:51;8.73;7.68;5.78;3.21;25.97;25.86;25.38;22.82;16.09;0.84
78211;SPS30;67490;52.086;5.122;2023-05-29T01:40:36;8.57;7.55;5.71;3.22;26.04;25.93;25.46;22.98;16.35;0.84
78211;SPS30;67490;52.086;5.122;2023-05-29T01:43:22;7.97;7.08;5.48;3.27;26.44;26.34;25.93;23.76;17.48;0.82
78211;SPS30;67490;52.086;5.122;2023-05-29T01:46:07;7.93;7.04;5.42;3.20;25.83;25.73;25.32;23.13;16.91;0.81
78211;SPS30;67490;52.086;5.122;2023-05-29T01:48:51;8.04;7.11;5.42;3.12;25.23;25.12;24.69;22.42;16.16;0.82
78211;SPS30;67490;52.086;5.122;2023-05-29T01:51:38;8.86;7.81;5.91;3.33;26.90;26.79;26.31;23.74;16.88;0.85
78211;SPS30;67490;52.086;5.122;2023-05-29T01:54:22;9.80;8.59;6.38;3.42;27.68;27.55;26.99;24.03;16.56;0.88
78211;SPS30;67490;52.086;5.122;2023-05-29T01:57:07;9.07;7.98;5.99;3.31;26.80;26.67;26.17;23.50;16.53;0.86
78211;SPS30;67490;52.086;5.122;2023-05-29T01:59:53;8.99;7.91;5.95;3.29;26.65;26.53;26.03;23.39;16.47;0.87
78211;SPS30;67490;52.086;5.122;2023-05-29T02:02:38;10.24;8.98;6.69;3.62;29.30;29.16;28.58;25.51;17.69;0.89
78211;SPS30;67490;52.086;5.122;2023-05-29T02:05:24;9.96;8.71;6.43;3.38;27.40;27.26;26.69;23.63;16.08;0.91
78211;SPS30;67490;52.086;5.122;2023-05-29T02:08:08;11.18;9.75;7.15;3.68;29.86;29.70;29.05;25.57;17.14;0.92
78211;SPS30;67490;52.086;5.122;2023-05-29T02:10:53;10.39;9.07;6.67;3.46;28.05;27.90;27.30;24.08;16.23;0.89
78211;SPS30;67490;52.086;5.122;2023-05-29T02:13:37;11.08;9.67;7.11;3.69;29.94;29.79;29.14;25.71;17.34;0.90
78211;SPS30;67490;52.086;5.122;2023-05-29T02:16:24;10.92;9.52;6.98;3.60;29.18;29.03;28.39;24.99;16.76;0.93
78211;SPS30;67490;52.086;5.122;2023-05-29T02:19:11;10.25;8.95;6.60;3.46;28.02;27.88;27.28;24.13;16.37;0.92
78211;SPS30;67490;52.086;5.122;2023-05-29T02:21:55;10.43;9.10;6.70;3.48;28.21;28.07;27.46;24.23;16.35;0.92
78211;SPS30;67490;52.086;5.122;2023-05-29T02:24:40;10.22;8.90;6.51;3.31;26.90;26.75;26.15;22.94;15.26;0.92
78211;SPS30;67490;52.086;5.122;2023-05-29T02:27:24;11.13;9.71;7.13;3.69;29.92;29.76;29.11;25.66;17.26;0.91
78211;SPS30;67490;52.086;5.122;2023-05-29T02:30:09;9.88;8.61;6.30;3.23;26.20;26.06;25.48;22.40;14.96;0.91
78211;SPS30;67490;52.086;5.122;2023-05-29T02:32:55;9.31;8.17;6.09;3.29;26.68;26.55;26.03;23.23;16.12;0.88
78211;SPS30;67490;52.086;5.122;2023-05-29T02:35:40;9.53;8.36;6.25;3.41;27.58;27.45;26.91;24.07;16.78;0.89
78211;SPS30;67490;52.086;5.122;2023-05-29T02:38:24;8.39;7.39;5.58;3.13;25.29;25.18;24.72;22.28;15.80;0.85
78211;SPS30;67490;52.086;5.122;2023-05-29T02:41:08;8.86;7.81;5.90;3.31;26.76;26.64;26.16;23.58;16.74;0.83
78211;SPS30;67490;52.086;5.122;2023-05-29T02:43:52;9.31;8.17;6.10;3.32;26.90;26.78;26.25;23.48;16.35;0.85
78211;SPS30;67490;52.086;5.122;2023-05-29T02:46:36;9.05;7.93;5.90;3.16;25.64;25.52;25.00;22.27;15.37;0.86
78211;SPS30;67490;52.086;5.122;2023-05-29T02:49:22;10.15;8.88;6.56;3.45;27.99;27.85;27.27;24.16;16.46;0.88
78211;SPS30;67490;52.086;5.122;2023-05-29T02:52:07;10.14;8.88;6.60;3.53;28.61;28.47;27.90;24.83;17.11;0.85
78211;SPS30;67490;52.086;5.122;2023-05-29T02:54:51;10.29;9.04;6.76;3.69;29.89;29.75;29.18;26.11;18.23;0.84
78211;SPS30;67490;52.086;5.122;2023-05-29T02:57:37;9.44;8.32;6.27;3.50;28.35;28.23;27.71;24.96;17.67;0.84
78211;SPS30;67490;52.086;5.122;2023-05-29T03:00:22;9.42;8.29;6.22;3.43;27.76;27.63;27.11;24.33;17.09;0.85
78211;SPS30;67490;52.086;5.122;2023-05-29T03:03:07;9.29;8.16;6.10;3.32;26.92;26.79;26.27;23.51;16.39;0.85
78211;SPS30;67490;52.086;5.122;2023-05-29T03:05:53;10.49;9.17;6.77;3.56;28.84;28.69;28.09;24.87;16.92;0.89
78211;SPS30;67490;52.086;5.122;2023-05-29T03:08:37;9.51;8.34;6.22;3.37;27.27;27.14;26.60;23.75;16.48;0.87
78211;SPS30;67490;52.086;5.122;2023-05-29T03:11:24;9.04;7.95;5.99;3.33;26.92;26.80;26.30;23.66;16.70;0.86
78211;SPS30;67490;52.086;5.122;2023-05-29T03:14:08;9.62;8.44;6.29;3.39;27.48;27.35;26.81;23.92;16.57;0.87
78211;SPS30;67490;52.086;5.122;2023-05-29T03:16:53;9.15;8.03;5.99;3.25;26.29;26.17;25.65;22.91;15.91;0.87
78211;SPS30;67490;52.086;5.122;2023-05-29T03:19:38;9.52;8.36;6.25;3.40;27.55;27.42;26.89;24.05;16.76;0.87
78211;SPS30;67490;52.086;5.122;2023-05-29T03:22:24;10.85;9.50;7.04;3.75;30.35;30.20;29.58;26.28;18.03;0.89
78211;SPS30;67490;52.086;5.122;2023-05-29T03:25:08;9.25;8.08;5.96;3.12;25.28;25.15;24.62;21.77;14.77;0.90
78211;SPS30;67490;52.086;5.122;2023-05-29T03:27:53;9.23;8.08;5.97;3.16;25.60;25.47;24.94;22.12;15.11;0.89
78211;SPS30;67490;52.086;5.122;2023-05-29T03:30:38;9.20;8.06;5.99;3.21;25.98;25.85;25.33;22.55;15.54;0.87
78211;SPS30;67490;52.086;5.122;2023-05-29T03:33:22;9.50;8.31;6.13;3.22;26.14;26.00;25.46;22.54;15.34;0.87
78211;SPS30;67490;52.086;5.122;2023-05-29T03:36:07;10.11;8.85;6.55;3.46;28.06;27.92;27.34;24.25;16.57;0.87
78211;SPS30;67490;52.086;5.122;2023-05-29T03:38:53;8.72;7.69;5.81;3.27;26.48;26.36;25.89;23.36;16.62;0.84
78211;SPS30;67490;52.086;5.122;2023-05-29T03:41:38;9.06;7.97;6.00;3.33;26.98;26.86;26.36;23.71;16.73;0.85
78211;SPS30;67490;52.086;5.122;2023-05-29T03:44:23;10.39;9.05;6.63;3.40;27.57;27.42;26.81;23.56;15.74;0.91
78211;SPS30;67490;52.086;5.122;2023-05-29T03:47:07;9.08;7.95;5.89;3.12;25.29;25.17;24.65;21.88;14.98;0.89
78211;SPS30;67490;52.086;5.122;2023-05-29T03:49:52;9.16;8.06;6.05;3.34;27.03;26.90;26.40;23.70;16.65;0.87
78211;SPS30;67490;52.086;5.122;2023-05-29T03:52:36;9.25;8.13;6.09;3.34;27.03;26.91;26.39;23.65;16.56;0.86
78211;SPS30;67490;52.086;5.122;2023-05-29T03:55:22;8.81;7.75;5.81;3.21;25.96;25.84;25.35;22.75;15.98;0.85
78211;SPS30;67490;52.086;5.122;2023-05-29T03:58:06;8.25;7.27;5.50;3.10;25.11;25.00;24.55;22.17;15.79;0.84
78211;SPS30;67490;52.086;5.122;2023-05-29T04:00:51;8.21;7.23;5.45;3.05;24.66;24.55;24.10;21.71;15.38;0.85
78211;SPS30;67490;52.086;5.122;2023-05-29T04:03:35;8.90;7.83;5.89;3.26;26.42;26.30;25.81;23.20;16.34;0.85
78211;SPS30;67490;52.086;5.122;2023-05-29T04:06:22;8.16;7.18;5.40;3.00;24.28;24.17;23.72;21.33;15.05;0.85
78211;SPS30;67490;52.086;5.122;2023-05-29T04:09:06;9.12;7.99;5.95;3.19;25.88;25.76;25.24;22.49;15.54;0.86
78211;SPS30;67490;52.086;5.122;2023-05-29T04:11:53;9.78;8.54;6.29;3.28;26.60;26.47;25.90;22.88;15.48;0.87
78211;SPS30;67490;52.086;5.122;2023-05-29T04:14:38;8.98;7.87;5.86;3.15;25.53;25.41;24.90;22.20;15.35;0.87
78211;SPS30;67490;52.086;5.122;2023-05-29T04:17:22;8.83;7.78;5.88;3.31;26.74;26.62;26.14;23.58;16.76;0.84
78211;SPS30;67490;52.086;5.122;2023-05-29T04:20:07;7.98;7.05;5.36;3.06;24.74;24.64;24.21;21.93;15.73;0.83
78211;SPS30;67490;52.086;5.122;2023-05-29T04:22:52;9.11;8.00;5.97;3.24;26.23;26.11;25.60;22.87;15.90;0.87
78211;SPS30;67490;52.086;5.122;2023-05-29T04:25:37;8.44;7.41;5.54;3.02;24.45;24.33;23.86;21.35;14.89;0.86
78211;SPS30;67490;52.086;5.122;2023-05-29T04:28:23;7.90;7.00;5.37;3.15;25.46;25.36;24.94;22.74;16.56;0.82
78211;SPS30;67490;52.086;5.122;2023-05-29T04:31:08;7.99;7.07;5.40;3.12;25.22;25.12;24.69;22.44;16.21;0.84
78211;SPS30;67490;52.086;5.122;2023-05-29T04:33:52;9.13;8.01;5.99;3.26;26.41;26.28;25.77;23.05;16.06;0.87
78211;SPS30;67490;52.086;5.122;2023-05-29T04:36:40;9.36;8.17;6.02;3.15;25.52;25.39;24.85;21.97;14.89;0.90
78211;SPS30;67490;52.086;5.122;2023-05-29T04:39:24;8.78;7.69;5.70;3.04;24.61;24.49;23.99;21.32;14.64;0.89
78211;SPS30;67490;52.086;5.122;2023-05-29T04:42:09;9.11;7.97;5.90;3.13;25.37;25.24;24.72;21.94;15.02;0.89
78211;SPS30;67490;52.086;5.122;2023-05-29T04:44:55;9.08;7.96;5.93;3.19;25.82;25.70;25.18;22.45;15.52;0.87
78211;SPS30;67490;52.086;5.122;2023-05-29T04:47:39;9.52;8.34;6.19;3.30;26.76;26.62;26.08;23.20;15.95;0.88
78211;SPS30;67490;52.086;5.122;2023-05-29T04:50:27;10.38;9.06;6.66;3.45;28.02;27.88;27.27;24.05;16.21;0.90
78211;SPS30;67490;52.086;5.122;2023-05-29T04:53:14;9.83;8.58;6.29;3.24;26.28;26.14;25.57;22.51;15.09;0.91
78211;SPS30;67490;52.086;5.122;2023-05-29T04:55:59;10.38;9.08;6.69;3.51;28.45;28.30;27.70;24.51;16.64;0.90
78211;SPS30;67490;52.086;5.122;2023-05-29T04:58:43;8.90;7.78;5.73;2.99;24.27;24.15;23.63;20.89;14.15;0.89
78211;SPS30;67490;52.086;5.122;2023-05-29T05:01:29;8.78;7.68;5.68;3.01;24.38;24.26;23.75;21.08;14.41;0.88
78211;SPS30;67490;52.086;5.122;2023-05-29T05:04:17;10.27;8.99;6.66;3.54;28.71;28.57;27.98;24.86;17.05;0.88
78211;SPS30;67490;52.086;5.122;2023-05-29T05:07:02;9.41;8.23;6.10;3.23;26.16;26.03;25.49;22.62;15.47;0.88
78211;SPS30;67490;52.086;5.122;2023-05-29T05:09:46;8.95;7.86;5.87;3.19;25.81;25.68;25.18;22.51;15.65;0.86
78211;SPS30;67490;52.086;5.122;2023-05-29T05:12:31;9.26;8.14;6.10;3.35;27.16;27.03;26.52;23.78;16.67;0.87
78211;SPS30;67490;52.086;5.122;2023-05-29T05:15:15;9.45;8.30;6.22;3.41;27.65;27.52;26.99;24.20;16.95;0.86
78211;SPS30;67490;52.086;5.122;2023-05-29T05:18:01;8.89;7.83;5.89;3.28;26.55;26.43;25.94;23.34;16.49;0.83
78211;SPS30;67490;52.086;5.122;2023-05-29T05:20:45;21.44;19.61;16.28;11.46;92.11;91.89;91.04;86.44;68.45;0.72
78211;SPS30;67490;52.086;5.122;2023-05-29T05:23:30;17.25;17.19;17.09;16.05;128.15;128.12;128.05;127.58;110.25;0.48
78211;SPS30;67490;52.086;5.122;2023-05-29T05:26:15;4.70;4.40;3.85;2.99;23.97;23.94;23.79;23.01;18.87;0.64
78211;SPS30;67490;52.086;5.122;2023-05-29T05:28:59;7.05;6.36;5.11;3.35;26.95;26.87;26.55;24.84;19.10;0.74
78211;SPS30;67490;52.086;5.122;2023-05-29T05:31:44;8.54;7.59;5.87;3.51;28.33;28.23;27.79;25.46;18.73;0.77
78211;SPS30;67490;52.086;5.122;2023-05-29T05:34:30;8.33;7.39;5.67;3.33;26.91;26.80;26.37;24.05;17.52;0.79
78211;SPS30;67490;52.086;5.122;2023-05-29T05:37:14;9.73;8.62;6.59;3.84;31.02;30.89;30.38;27.65;20.05;0.79
78211;SPS30;67490;52.086;5.122;2023-05-29T05:39:59;9.51;8.40;6.39;3.66;29.59;29.47;28.96;26.25;18.86;0.81
78211;SPS30;67490;52.086;5.122;2023-05-29T05:42:44;9.52;8.41;6.40;3.67;29.64;29.52;29.01;26.29;18.89;0.82
78211;SPS30;67490;52.086;5.122;2023-05-29T05:45:28;9.98;8.79;6.61;3.68;29.77;29.63;29.09;26.16;18.47;0.85
78211;SPS30;67490;52.086;5.122;2023-05-29T05:48:12;9.78;8.61;6.48;3.61;29.18;29.05;28.51;25.64;18.11;0.83
78211;SPS30;67490;52.086;5.122;2023-05-29T05:50:58;10.12;8.91;6.71;3.73;30.16;30.03;29.47;26.50;18.71;0.84
78211;SPS30;67490;52.086;5.122;2023-05-29T05:53:42;8.85;7.80;5.90;3.32;26.85;26.74;26.25;23.69;16.85;0.82
78211;SPS30;67490;52.086;5.122;2023-05-29T05:56:26;8.78;7.74;5.86;3.31;26.74;26.62;26.15;23.61;16.81;0.82
78211;SPS30;67490;52.086;5.122;2023-05-29T05:59:11;10.48;9.21;6.89;3.77;30.53;30.39;29.81;26.69;18.65;0.85
78211;SPS30;67490;52.086;5.122;2023-05-29T06:01:55;8.95;7.88;5.94;3.31;26.79;26.67;26.18;23.56;16.66;0.83
78211;SPS30;67490;52.086;5.122;2023-05-29T06:04:40;8.87;7.81;5.89;3.29;26.61;26.49;26.01;23.42;16.58;0.81
78211;SPS30;67490;52.086;5.122;2023-05-29T06:07:26;8.93;7.89;5.98;3.40;27.53;27.42;26.93;24.37;17.44;0.80
78211;SPS30;67490;52.086;5.122;2023-05-29T06:10:10;9.91;8.71;6.54;3.61;29.19;29.06;28.51;25.59;17.97;0.84
78211;SPS30;67490;52.086;5.122;2023-05-29T06:12:54;10.07;8.81;6.52;3.46;28.05;27.91;27.33;24.27;16.62;0.87
78211;SPS30;67490;52.086;5.122;2023-05-29T06:15:39;9.73;8.52;6.32;3.36;27.21;27.08;26.52;23.56;16.16;0.89
78211;SPS30;67490;52.086;5.122;2023-05-29T06:18:24;9.29;8.19;6.18;3.46;27.97;27.84;27.33;24.63;17.46;0.84
78211;SPS30;67490;52.086;5.122;2023-05-29T06:21:08;8.21;7.27;5.57;3.24;26.21;26.10;25.67;23.37;16.96;0.80
78211;SPS30;67490;52.086;5.122;2023-05-29T06:23:54;8.93;7.89;6.00;3.43;27.72;27.60;27.13;24.57;17.64;0.82
78211;SPS30;67490;52.086;5.122;2023-05-29T06:26:39;8.38;7.42;5.67;3.29;26.60;26.49;26.05;23.69;17.15;0.81
78211;SPS30;67490;52.086;5.122;2023-05-29T06:29:24;8.22;7.26;5.51;3.14;25.38;25.27;24.83;22.47;16.09;0.82
78211;SPS30;67490;52.086;5.122;2023-05-29T06:32:08;8.57;7.57;5.76;3.30;26.67;26.56;26.10;23.66;17.00;0.81
78211;SPS30;67490;52.086;5.122;2023-05-29T06:34:52;9.20;8.06;5.99;3.20;25.95;25.82;25.30;22.52;15.51;0.87
78211;SPS30;67490;52.086;5.122;2023-05-29T06:37:36;8.25;7.26;5.46;3.02;24.47;24.36;23.91;21.49;15.14;0.85
78211;SPS30;67490;52.086;5.122;2023-05-29T06:40:22;9.12;8.04;6.06;3.38;27.35;27.23;26.72;24.06;17.02;0.84
78211;SPS30;67490;52.086;5.122;2023-05-29T06:43:06;7.47;6.62;5.07;2.95;23.86;23.77;23.37;21.28;15.44;0.80
78211;SPS30;67490;52.086;5.122;2023-05-29T06:45:51;6.95;6.19;4.81;2.91;23.49;23.41;23.05;21.18;15.68;0.78
78211;SPS30;67490;52.086;5.122;2023-05-29T06:48:35;7.67;6.79;5.19;3.01;24.33;24.23;23.83;21.67;15.69;0.81
78211;SPS30;67490;52.086;5.122;2023-05-29T06:51:20;7.28;6.46;4.97;2.93;23.70;23.61;23.23;21.21;15.50;0.80
78211;SPS30;67490;52.086;5.122;2023-05-29T06:54:04;7.77;6.90;5.31;3.14;25.35;25.25;24.85;22.70;16.60;0.80
78211;SPS30;67490;52.086;5.122;2023-05-29T06:56:50;7.27;6.48;5.04;3.06;24.69;24.60;24.24;22.29;16.53;0.78
78211;SPS30;67490;52.086;5.122;2023-05-29T06:59:34;6.98;6.23;4.86;2.97;23.99;23.91;23.56;21.70;16.16;0.78
78211;SPS30;67490;52.086;5.122;2023-05-29T07:02:19;7.61;6.77;5.24;3.14;25.32;25.22;24.83;22.76;16.76;0.79
78211;SPS30;67490;52.086;5.122;2023-05-29T07:05:03;6.76;6.02;4.69;2.85;22.97;22.89;22.55;20.74;15.38;0.78
78211;SPS30;67490;52.086;5.122;2023-05-29T07:07:48;6.41;5.72;4.46;2.72;21.91;21.84;21.52;19.80;14.72;0.77
78211;SPS30;67490;52.086;5.122;2023-05-29T07:10:33;6.31;5.66;4.49;2.86;23.02;22.95;22.65;21.05;15.97;0.74
78211;SPS30;67490;52.086;5.122;2023-05-29T07:13:18;6.28;5.64;4.49;2.88;23.21;23.14;22.85;21.28;16.21;0.75
78211;SPS30;67490;52.086;5.122;2023-05-29T07:16:03;6.25;5.61;4.46;2.86;23.02;22.95;22.66;21.09;16.05;0.75
78211;SPS30;67490;52.086;5.122;2023-05-29T07:18:47;6.56;5.87;4.63;2.90;23.39;23.31;23.00;21.31;16.05;0.77
78211;SPS30;67490;52.086;5.122;2023-05-29T07:21:31;7.12;6.35;4.94;3.00;24.23;24.14;23.78;21.88;16.23;0.78
78211;SPS30;67490;52.086;5.122;2023-05-29T07:24:16;7.37;6.60;5.19;3.24;26.14;26.05;25.69;23.78;17.89;0.77
78211;SPS30;67490;52.086;5.122;2023-05-29T07:27:00;6.80;6.09;4.80;3.01;24.30;24.22;23.89;22.14;16.69;0.76
78211;SPS30;67490;52.086;5.122;2023-05-29T07:29:46;6.48;5.82;4.62;2.94;23.68;23.60;23.30;21.66;16.44;0.76
78211;SPS30;67490;52.086;5.122;2023-05-29T07:32:31;6.63;6.00;4.85;3.22;25.94;25.87;25.58;24.00;18.57;0.73
78211;SPS30;67490;52.086;5.122;2023-05-29T07:35:15;6.65;6.01;4.84;3.19;25.71;25.64;25.34;23.74;18.30;0.74
78211;SPS30;67490;52.086;5.122;2023-05-29T07:37:59;6.22;5.64;4.59;3.10;24.92;24.85;24.58;23.14;18.02;0.71
78211;SPS30;67490;52.086;5.122;2023-05-29T07:40:44;6.89;6.20;4.95;3.20;25.77;25.70;25.38;23.67;18.09;0.75
78211;SPS30;67490;52.086;5.122;2023-05-29T07:43:28;6.57;5.89;4.65;2.93;23.65;23.57;23.26;21.57;16.30;0.77
78211;SPS30;67490;52.086;5.122;2023-05-29T07:46:14;6.02;5.45;4.43;2.97;23.91;23.85;23.58;22.18;17.23;0.71
78211;SPS30;67490;52.086;5.122;2023-05-29T07:48:59;6.07;5.53;4.56;3.15;25.33;25.27;25.02;23.67;18.61;0.69
78211;SPS30;67490;52.086;5.122;2023-05-29T07:51:43;6.02;5.48;4.50;3.09;24.87;24.81;24.56;23.21;18.20;0.70
78211;SPS30;67490;52.086;5.122;2023-05-29T07:54:28;5.70;5.20;4.30;3.00;24.09;24.03;23.80;22.55;17.79;0.70
78211;SPS30;67490;52.086;5.122;2023-05-29T07:57:13;5.58;5.09;4.22;2.95;23.68;23.62;23.40;22.18;17.52;0.72
78211;SPS30;67490;52.086;5.122;2023-05-29T07:59:57;6.29;5.70;4.62;3.09;24.85;24.78;24.50;23.03;17.86;0.76
78211;SPS30;67490;52.086;5.122;2023-05-29T08:02:43;5.51;5.02;4.12;2.84;22.80;22.75;22.51;21.28;16.70;0.72
78211;SPS30;67490;52.086;5.122;2023-05-29T08:05:29;5.09;4.69;3.97;2.90;23.28;23.23;23.05;22.04;17.69;0.66
78211;SPS30;67490;52.086;5.122;2023-05-29T08:08:15;5.38;4.96;4.19;3.04;24.44;24.39;24.19;23.12;18.53;0.65
78211;SPS30;67490;52.086;5.122;2023-05-29T08:10:59;5.29;4.87;4.12;3.01;24.15;24.10;23.91;22.86;18.34;0.66
78211;SPS30;67490;52.086;5.122;2023-05-29T08:13:44;5.30;4.82;3.96;2.73;21.97;21.91;21.69;20.51;16.11;0.70
78211;SPS30;67490;52.086;5.122;2023-05-29T08:16:28;5.79;5.26;4.30;2.93;23.55;23.49;23.24;21.92;17.13;0.71
78211;SPS30;67490;52.086;5.122;2023-05-29T08:19:15;5.73;5.19;4.21;2.83;22.76;22.70;22.45;21.11;16.40;0.74
78211;SPS30;67490;52.086;5.122;2023-05-29T08:21:59;5.95;5.39;4.37;2.92;23.51;23.45;23.18;21.78;16.90;0.74
78211;SPS30;67490;52.086;5.122;2023-05-29T08:24:44;6.15;5.57;4.51;3.00;24.16;24.10;23.82;22.37;17.32;0.75
78211;SPS30;67490;52.086;5.122;2023-05-29T08:27:28;5.92;5.37;4.38;2.97;23.92;23.86;23.60;22.25;17.36;0.72
78211;SPS30;67490;52.086;5.122;2023-05-29T08:30:13;5.35;4.88;4.04;2.81;22.62;22.56;22.35;21.18;16.70;0.71
78211;SPS30;67490;52.086;5.122;2023-05-29T08:32:57;5.36;4.90;4.07;2.86;22.99;22.93;22.72;21.57;17.07;0.71
78211;SPS30;67490;52.086;5.122;2023-05-29T08:35:43;5.35;4.90;4.09;2.90;23.29;23.24;23.03;21.90;17.39;0.70
78211;SPS30;67490;52.086;5.122;2023-05-29T08:38:28;5.39;4.98;4.22;3.10;24.90;24.85;24.66;23.61;18.99;0.67
78211;SPS30;67490;52.086;5.122;2023-05-29T08:41:15;5.84;5.33;4.40;3.06;24.58;24.52;24.28;22.99;18.11;0.70
78211;SPS30;67490;52.086;5.122;2023-05-29T08:44:09;5.82;5.31;4.39;3.05;24.56;24.50;24.26;22.99;18.13;0.69
78211;SPS30;67490;52.086;5.122;2023-05-29T08:47:00;5.28;4.86;4.09;2.96;23.75;23.70;23.51;22.44;17.95;0.67
78211;SPS30;67490;52.086;5.122;2023-05-29T08:49:50;4.55;4.23;3.64;2.75;22.09;22.06;21.90;21.08;17.13;0.65
78211;SPS30;67490;52.086;5.122;2023-05-29T08:52:38;5.13;4.76;4.10;3.08;24.74;24.70;24.53;23.59;19.14;0.63
78211;SPS30;67490;52.086;5.122;2023-05-29T08:55:25;4.95;4.61;3.98;3.02;24.25;24.21;24.04;23.16;18.85;0.62
78211;SPS30;67490;52.086;5.122;2023-05-29T08:58:09;5.22;4.82;4.09;3.00;24.09;24.04;23.85;22.83;18.36;0.66
78211;SPS30;67490;52.086;5.122;2023-05-29T09:00:55;5.24;4.85;4.14;3.08;24.73;24.69;24.50;23.51;19.00;0.65
78211;SPS30;67490;52.086;5.122;2023-05-29T09:03:41;5.10;4.69;3.96;2.87;23.06;23.01;22.82;21.80;17.46;0.67
78211;SPS30;67490;52.086;5.122;2023-05-29T09:06:25;5.39;4.96;4.18;3.03;24.35;24.30;24.09;23.01;18.42;0.67
78211;SPS30;67490;52.086;5.122;2023-05-29T09:09:11;5.09;4.68;3.94;2.84;22.84;22.79;22.60;21.56;17.24;0.68
78211;SPS30;67490;52.086;5.122;2023-05-29T09:11:55;5.24;4.84;4.10;3.01;24.14;24.10;23.90;22.88;18.39;0.67
78211;SPS30;67490;52.086;5.122;2023-05-29T09:14:40;4.67;4.30;3.65;2.67;21.40;21.36;21.19;20.27;16.28;0.66
78211;SPS30;67490;52.086;5.122;2023-05-29T09:17:30;4.56;4.23;3.63;2.72;21.82;21.78;21.63;20.78;16.84;0.66
78211;SPS30;67490;52.086;5.122;2023-05-29T09:20:15;4.43;4.12;3.56;2.71;21.74;21.71;21.56;20.78;16.92;0.64
78211;SPS30;67490;52.086;5.122;2023-05-29T09:23:07;4.81;4.48;3.89;2.98;23.89;23.85;23.69;22.86;18.65;0.64
78211;SPS30;67490;52.086;5.122;2023-05-29T09:25:54;4.80;4.46;3.84;2.90;23.27;23.23;23.06;22.19;18.03;0.65
78211;SPS30;67490;52.086;5.122;2023-05-29T09:28:38;4.91;4.56;3.93;2.97;23.82;23.78;23.61;22.72;18.46;0.66
78211;SPS30;67490;52.086;5.122;2023-05-29T09:31:23;5.01;4.62;3.93;2.89;23.18;23.14;22.95;21.98;17.69;0.67
78211;SPS30;67490;52.086;5.122;2023-05-29T09:34:08;4.85;4.47;3.79;2.78;22.30;22.25;22.08;21.13;16.98;0.67
78211;SPS30;67490;52.086;5.122;2023-05-29T09:36:53;4.89;4.52;3.85;2.84;22.79;22.74;22.57;21.62;17.42;0.67
78211;SPS30;67490;52.086;5.122;2023-05-29T09:39:46;4.91;4.54;3.85;2.84;22.77;22.72;22.54;21.59;17.38;0.68
78211;SPS30;67490;52.086;5.122;2023-05-29T09:42:32;4.40;4.08;3.49;2.60;20.84;20.80;20.65;19.82;16.02;0.68
78211;SPS30;67490;52.086;5.122;2023-05-29T09:45:17;4.25;3.96;3.42;2.61;20.92;20.88;20.74;19.99;16.28;0.67
78211;SPS30;67490;52.086;5.122;2023-05-29T09:48:01;4.42;4.09;3.50;2.61;20.95;20.92;20.76;19.93;16.12;0.68
78211;SPS30;67490;52.086;5.122;2023-05-29T09:50:46;4.63;4.27;3.63;2.67;21.46;21.42;21.25;20.35;16.39;0.68
78211;SPS30;67490;52.086;5.122;2023-05-29T09:53:33;4.39;4.06;3.47;2.57;20.62;20.58;20.43;19.59;15.81;0.67
78211;SPS30;67490;52.086;5.122;2023-05-29T09:56:17;4.83;4.43;3.69;2.62;21.09;21.04;20.85;19.84;15.76;0.69
78211;SPS30;67490;52.086;5.122;2023-05-29T09:59:03;5.10;4.66;3.86;2.70;21.74;21.69;21.48;20.38;16.10;0.70
78211;SPS30;67490;52.086;5.122;2023-05-29T10:01:49;4.68;4.30;3.61;2.60;20.91;20.87;20.69;19.74;15.77;0.68
78211;SPS30;67490;52.086;5.122;2023-05-29T10:04:45;4.54;4.20;3.59;2.66;21.38;21.34;21.18;20.32;16.41;0.66
78211;SPS30;67490;52.086;5.122;2023-05-29T10:07:29;4.39;4.09;3.54;2.70;21.65;21.62;21.47;20.70;16.87;0.66
78211;SPS30;67490;52.086;5.122;2023-05-29T10:10:19;4.88;4.47;3.73;2.64;21.25;21.20;21.01;19.98;15.87;0.70
78211;SPS30;67490;52.086;5.122;2023-05-29T10:13:04;4.85;4.47;3.78;2.75;22.12;22.07;21.89;20.93;16.79;0.67
78211;SPS30;67490;52.086;5.122;2023-05-29T10:15:55;4.58;4.25;3.63;2.70;21.68;21.64;21.48;20.62;16.66;0.66
78211;SPS30;67490;52.086;5.122;2023-05-29T10:18:43;4.17;3.89;3.37;2.57;20.64;20.60;20.47;19.74;16.09;0.67
78211;SPS30;67490;52.086;5.122;2023-05-29T10:21:29;4.89;4.50;3.79;2.74;22.03;21.98;21.80;20.81;16.65;0.69